Time;durP1;ratioP1;P1;durP2;ratioP2;P2;SDS_P1;SDS_P2;PMS_P1;PMS_P2;Temp;Humidity;BMP_temperature;BMP_pressure;BME280_temperature;BME280_humidity;BME280_pressure;Samples;Min_cycle;Max_cycle;Signal;HPM_P1;HPM_P2
2022/02/16 00:02:11;;;;;;;25.82;13.83;;;;;;;3.33;63.70;101429.14;1696459;84;26992;-57
2022/02/16 00:04:39;;;;;;;30.85;13.70;;;;;;;3.24;63.65;101424.66;1692783;84;25729;-58
2022/02/16 00:07:06;;;;;;;25.65;13.05;;;;;;;3.19;63.70;101428.45;1692386;84;27473;-57
2022/02/16 00:09:33;;;;;;;29.65;13.58;;;;;;;3.09;63.74;101427.56;1692363;84;25753;-58
2022/02/16 00:12:04;;;;;;;25.77;12.68;;;;;;;3.02;63.74;101426.13;1692307;84;25750;-58
2022/02/16 00:14:31;;;;;;;24.60;13.32;;;;;;;2.95;63.67;101426.02;1692596;84;26584;-58
2022/02/16 00:16:58;;;;;;;28.30;14.05;;;;;;;2.90;63.97;101422.25;1697097;84;25830;-57
2022/02/16 00:19:25;;;;;;;26.70;13.48;;;;;;;2.91;64.22;101417.33;1698053;84;27510;-57
2022/02/16 00:21:52;;;;;;;24.72;13.10;;;;;;;2.90;64.61;101415.60;1698324;84;25679;-57
2022/02/16 00:24:20;;;;;;;25.85;13.72;;;;;;;2.90;64.73;101410.28;1694025;83;25742;-56
2022/02/16 00:26:47;;;;;;;26.77;14.50;;;;;;;2.95;64.89;101414.06;1685006;84;25783;-57
2022/02/16 00:29:14;;;;;;;27.20;13.48;;;;;;;2.99;64.95;101411.67;1689167;84;25717;-57
2022/02/16 00:31:42;;;;;;;24.67;13.48;;;;;;;3.01;65.06;101405.80;1698259;84;27499;-56
2022/02/16 00:34:09;;;;;;;25.97;13.43;;;;;;;3.03;65.03;101403.93;1698272;84;25702;-57
2022/02/16 00:36:36;;;;;;;24.05;12.03;;;;;;;3.01;65.00;101400.95;1697853;84;26447;-57
2022/02/16 00:39:04;;;;;;;23.92;12.98;;;;;;;3.01;65.07;101403.13;1686433;84;25834;-57
2022/02/16 00:41:31;;;;;;;26.15;12.37;;;;;;;3.02;65.10;101406.19;1684481;85;25817;-58
2022/02/16 00:43:57;;;;;;;26.62;12.43;;;;;;;3.05;65.08;101402.08;1693605;84;27366;-57
2022/02/16 00:46:25;;;;;;;29.67;14.43;;;;;;;3.11;65.05;101407.57;1705709;83;25956;-58
2022/02/16 00:48:52;;;;;;;28.60;14.95;;;;;;;3.15;65.12;101402.48;1709405;83;25492;-57
2022/02/16 00:51:18;;;;;;;23.92;14.58;;;;;;;3.17;64.75;101404.61;1709379;83;25861;-57
2022/02/16 00:53:46;;;;;;;33.92;15.63;;;;;;;3.15;64.58;101401.64;1709387;83;25776;-58
2022/02/16 00:56:14;;;;;;;33.05;15.23;;;;;;;3.12;64.36;101399.99;1706234;83;27580;-57
2022/02/16 00:58:41;;;;;;;28.77;15.20;;;;;;;3.09;64.31;101393.48;1689395;84;25850;-56
2022/02/16 01:01:09;;;;;;;36.33;16.82;;;;;;;3.05;64.07;101395.42;1684712;85;25784;-57
2022/02/16 01:03:37;;;;;;;31.82;15.48;;;;;;;3.00;64.11;101392.14;1685149;85;25889;-57
2022/02/16 01:06:05;;;;;;;28.80;16.80;;;;;;;2.94;64.23;101388.41;1684649;85;25805;-57
2022/02/16 01:08:32;;;;;;;31.12;16.50;;;;;;;2.89;64.28;101392.61;1684744;85;27458;-57
2022/02/16 01:11:01;;;;;;;27.15;14.63;;;;;;;2.85;64.26;101387.52;1692584;84;25742;-57
2022/02/16 01:13:28;;;;;;;30.62;16.10;;;;;;;2.81;64.29;101382.36;1698407;84;25869;-57
2022/02/16 01:15:56;;;;;;;29.50;15.03;;;;;;;2.80;65.27;101373.98;1698394;84;25754;-58
2022/02/16 01:18:23;;;;;;;37.48;17.05;;;;;;;2.76;64.78;101378.19;1698431;84;25785;-58
2022/02/16 01:20:52;;;;;;;35.63;17.30;;;;;;;2.75;65.15;101371.99;1698016;84;28282;-58
2022/02/16 01:23:19;;;;;;;36.65;16.67;;;;;;;2.80;65.45;101383.73;1698201;84;25702;-57
2022/02/16 01:25:47;;;;;;;33.85;15.38;;;;;;;2.82;65.30;101384.05;1676845;84;25644;-58
2022/02/16 01:28:24;;;;;;;36.83;16.30;;;;;;;2.84;65.64;101372.50;1639425;85;25779;-57
2022/02/16 01:30:52;;;;;;;32.45;15.00;;;;;;;2.87;65.63;101363.06;1672321;85;25501;-57
2022/02/16 01:33:23;;;;;;;31.80;15.60;;;;;;;2.93;65.82;101361.44;1689917;84;28236;-57
2022/02/16 01:35:51;;;;;;;30.62;16.52;;;;;;;3.00;65.93;101361.56;1698348;84;25768;-57
2022/02/16 01:38:18;;;;;;;31.97;16.45;;;;;;;3.05;65.85;101363.53;1695402;84;25899;-57
2022/02/16 01:40:52;;;;;;;32.40;15.93;;;;;;;3.08;65.70;101355.42;1688562;84;25791;-58
2022/02/16 01:43:19;;;;;;;31.82;16.67;;;;;;;3.06;65.49;101351.96;1692563;84;25785;-58
2022/02/16 01:45:47;;;;;;;42.58;16.80;;;;;;;2.99;65.39;101346.55;1688575;84;27438;-57
2022/02/16 01:48:16;;;;;;;43.13;16.80;;;;;;;2.88;65.18;101348.84;1684250;85;26323;-57
2022/02/16 01:50:43;;;;;;;33.28;18.20;;;;;;;2.82;65.16;101348.66;1674290;85;25817;-57
2022/02/16 01:53:12;;;;;;;30.92;17.05;;;;;;;2.75;65.17;101341.92;1643036;87;26819;-57
2022/02/16 01:55:40;;;;;;;29.12;16.10;;;;;;;2.71;65.30;101338.55;1660425;86;26329;-57
2022/02/16 01:58:09;;;;;;;28.98;17.00;;;;;;;2.67;65.17;101335.63;1659911;85;27487;-58
2022/02/16 02:00:46;;;;;;;30.27;16.85;;;;;;;2.57;65.15;101340.52;1640134;86;25850;-58
2022/02/16 02:03:15;;;;;;;34.00;16.17;;;;;;;2.49;65.51;101336.87;1660244;86;25841;-57
2022/02/16 02:05:51;;;;;;;39.98;17.80;;;;;;;2.40;65.64;101330.64;1659407;86;26470;-57
2022/02/16 02:08:24;;;;;;;33.38;17.12;;;;;;;2.35;65.69;101326.87;1660306;86;25738;-57
2022/02/16 02:10:48;;;;;;;31.55;15.65;;;;;;;2.33;65.91;101331.86;1659193;86;27527;-58
2022/02/16 02:13:17;;;;;;;29.50;17.00;;;;;;;2.27;66.02;101331.67;1660063;86;25814;-57
2022/02/16 02:15:46;;;;;;;28.30;15.28;;;;;;;2.26;66.22;101334.40;1659806;86;25508;-57
2022/02/16 02:18:19;;;;;;;30.27;18.32;;;;;;;2.25;66.37;101337.50;1658901;86;25929;-57
2022/02/16 02:20:46;;;;;;;37.83;15.88;;;;;;;2.28;66.58;101338.70;1660248;86;25750;-57
2022/02/16 02:23:14;;;;;;;29.45;17.20;;;;;;;2.34;66.88;101331.78;1660128;86;27502;-57
2022/02/16 02:25:56;;;;;;;32.13;17.25;;;;;;;2.39;66.90;101324.09;1673978;85;25796;-57
2022/02/16 02:28:26;;;;;;;30.48;17.50;;;;;;;2.42;66.98;101330.59;1681659;85;25809;-57
2022/02/16 02:30:55;;;;;;;35.58;16.73;;;;;;;2.42;67.07;101335.91;1666437;84;25939;-57
2022/02/16 02:33:24;;;;;;;37.17;17.57;;;;;;;2.41;67.08;101324.41;1695779;84;26283;-58
2022/02/16 02:35:53;;;;;;;38.23;17.75;;;;;;;2.44;66.98;101335.34;1656789;86;27389;-57
2022/02/16 02:38:21;;;;;;;36.20;19.07;;;;;;;2.48;66.84;101335.62;1667638;84;25757;-57
2022/02/16 02:40:57;;;;;;;39.30;18.02;;;;;;;2.49;66.80;101334.69;1696144;84;25721;-58
2022/02/16 02:43:26;;;;;;;32.75;17.55;;;;;;;2.50;66.60;101336.42;1670744;84;26519;-56
2022/02/16 02:45:55;;;;;;;39.15;18.57;;;;;;;2.44;66.21;101325.61;1701730;82;25693;-58
2022/02/16 02:48:25;;;;;;;38.02;19.73;;;;;;;2.37;65.92;101323.28;1707436;84;27444;-58
2022/02/16 02:50:55;;;;;;;30.90;16.73;;;;;;;2.31;66.09;101317.78;1707021;84;25832;-57
2022/02/16 02:53:22;;;;;;;32.33;17.65;;;;;;;2.20;66.36;101322.26;1707228;84;25813;-58
2022/02/16 02:55:49;;;;;;;39.20;16.97;;;;;;;2.14;66.40;101322.06;1674465;84;26500;-58
2022/02/16 02:58:16;;;;;;;31.65;17.40;;;;;;;2.13;66.54;101319.48;1691275;84;25831;-57
2022/02/16 03:00:46;;;;;;;40.83;19.77;;;;;;;2.13;66.73;101318.16;1696226;84;28922;-57
2022/02/16 03:03:13;;;;;;;38.58;18.25;;;;;;;2.12;67.19;101321.74;1696119;84;25762;-56
2022/02/16 03:05:40;;;;;;;34.10;17.70;;;;;;;2.11;66.92;101315.55;1696190;84;25690;-57
2022/02/16 03:08:07;;;;;;;37.78;17.70;;;;;;;2.15;67.20;101314.50;1696059;84;26473;-57
2022/02/16 03:10:34;;;;;;;32.20;16.35;;;;;;;2.21;67.32;101319.13;1696023;83;25809;-57
2022/02/16 03:13:01;;;;;;;30.57;16.82;;;;;;;2.24;67.44;101319.84;1695138;84;28775;-56
2022/02/16 03:15:30;;;;;;;34.20;17.30;;;;;;;2.29;67.41;101320.52;1693406;84;25786;-57
2022/02/16 03:17:57;;;;;;;31.55;17.62;;;;;;;2.33;67.20;101322.09;1694941;84;25758;-57
2022/02/16 03:20:24;;;;;;;38.60;18.82;;;;;;;2.36;67.42;101327.75;1695263;84;25816;-57
2022/02/16 03:22:51;;;;;;;32.90;17.48;;;;;;;2.44;67.67;101330.92;1694915;84;25985;-57
2022/02/16 03:25:19;;;;;;;35.50;17.87;;;;;;;2.52;67.33;101337.66;1693188;84;27480;-57
2022/02/16 03:27:48;;;;;;;36.80;17.55;;;;;;;2.53;67.23;101337.59;1695287;84;26477;-57
2022/02/16 03:30:15;;;;;;;32.73;18.30;;;;;;;2.55;67.18;101334.40;1698584;84;25783;-57
2022/02/16 03:32:43;;;;;;;39.08;18.23;;;;;;;2.55;67.21;101341.04;1697825;84;25801;-57
2022/02/16 03:35:11;;;;;;;35.28;18.70;;;;;;;2.56;67.17;101346.75;1699010;84;26024;-57
2022/02/16 03:37:37;;;;;;;36.85;18.87;;;;;;;2.54;67.05;101339.80;1698604;84;27669;-56
2022/02/16 03:40:08;;;;;;;38.58;18.80;;;;;;;2.52;66.65;101341.17;1692527;84;25954;-57
2022/02/16 03:42:36;;;;;;;35.38;17.82;;;;;;;2.45;66.42;101341.06;1662897;86;25746;-59
2022/02/16 03:45:04;;;;;;;36.20;18.20;;;;;;;2.40;66.40;101331.97;1667654;85;26626;-57
2022/02/16 03:47:39;;;;;;;39.30;19.17;;;;;;;2.39;66.54;101326.74;1685873;84;25862;-57
2022/02/16 03:50:08;;;;;;;38.42;19.85;;;;;;;2.36;66.51;101326.42;1687761;85;27548;-57
2022/02/16 03:52:36;;;;;;;32.83;16.60;;;;;;;2.35;66.59;101324.22;1688245;83;25762;-57
2022/02/16 03:55:05;;;;;;;32.05;16.87;;;;;;;2.34;66.69;101330.45;1690802;83;25735;-57
2022/02/16 03:57:31;;;;;;;32.67;17.87;;;;;;;2.32;66.90;101332.34;1690891;84;26040;-58
2022/02/16 03:59:59;;;;;;;28.35;16.23;;;;;;;2.29;66.93;101327.16;1690994;84;25485;-57
2022/02/16 04:02:40;;;;;;;35.75;17.52;;;;;;;2.27;67.09;101326.36;1690898;84;27515;-58
2022/02/16 04:05:10;;;;;;;30.27;16.87;;;;;;;2.24;67.25;101330.47;1690837;84;25809;-58
2022/02/16 04:07:37;;;;;;;30.95;16.45;;;;;;;2.17;67.26;101336.53;1690889;84;25789;-58
2022/02/16 04:10:06;;;;;;;35.00;18.15;;;;;;;2.15;67.39;101335.73;1691116;83;25744;-58
2022/02/16 04:12:34;;;;;;;33.95;17.95;;;;;;;2.14;67.50;101331.35;1690958;83;25712;-58
2022/02/16 04:15:01;;;;;;;34.78;18.98;;;;;;;2.14;67.44;101311.45;1690997;84;27468;-58
2022/02/16 04:17:30;;;;;;;38.63;20.00;;;;;;;2.10;67.05;101318.28;1690750;83;25760;-58
2022/02/16 04:19:59;;;;;;;37.60;21.17;;;;;;;2.02;67.04;101325.25;1690991;84;26548;-58
2022/02/16 04:22:26;;;;;;;41.40;22.55;;;;;;;1.95;67.15;101315.39;1690920;84;25856;-57
2022/02/16 04:24:55;;;;;;;40.00;20.82;;;;;;;1.91;67.40;101311.13;1693667;84;25757;-58
2022/02/16 04:27:22;;;;;;;40.15;21.35;;;;;;;1.84;67.19;101318.48;1697133;84;26931;-58
2022/02/16 04:29:49;;;;;;;36.45;19.48;;;;;;;1.74;67.09;101315.86;1686845;84;25838;-58
2022/02/16 04:32:16;;;;;;;43.75;21.95;;;;;;;1.66;67.19;101318.83;1684120;85;25804;-58
2022/02/16 04:34:43;;;;;;;40.73;20.17;;;;;;;1.62;67.15;101315.89;1692563;84;25752;-58
2022/02/16 04:37:10;;;;;;;45.73;20.48;;;;;;;1.60;67.34;101321.75;1698453;84;25691;-58
2022/02/16 04:39:37;;;;;;;36.85;19.92;;;;;;;1.57;67.49;101321.87;1698341;84;29555;-58
2022/02/16 04:42:04;;;;;;;41.05;21.07;;;;;;;1.54;67.60;101318.01;1698008;84;25789;-57
2022/02/16 04:44:31;;;;;;;30.95;18.45;;;;;;;1.54;67.87;101318.01;1698008;84;25745;-58
2022/02/16 04:47:00;;;;;;;37.60;18.62;;;;;;;1.54;68.07;101312.26;1719038;82;25798;-58
2022/02/16 04:49:28;;;;;;;36.65;18.23;;;;;;;1.54;68.13;101316.23;1719593;83;25761;-57
2022/02/16 04:51:55;;;;;;;42.13;20.10;;;;;;;1.56;68.15;101317.48;1719776;83;27487;-57
2022/02/16 04:54:23;;;;;;;33.28;18.57;;;;;;;1.55;68.14;101325.05;1718640;83;25813;-57
2022/02/16 04:56:50;;;;;;;40.90;20.92;;;;;;;1.56;68.25;101317.05;1698894;84;25666;-58
2022/02/16 04:59:18;;;;;;;39.35;20.68;;;;;;;1.57;68.32;101311.27;1698284;84;25883;-57
2022/02/16 05:01:46;;;;;;;43.95;21.27;;;;;;;1.59;68.21;101311.19;1698492;84;25804;-57
2022/02/16 05:04:13;;;;;;;41.28;21.73;;;;;;;1.58;68.14;101311.66;1698254;84;27593;-57
2022/02/16 05:06:41;;;;;;;45.00;19.60;;;;;;;1.56;67.97;101321.47;1698119;84;25754;-58
2022/02/16 05:09:09;;;;;;;44.53;20.43;;;;;;;1.51;67.83;101315.51;1694302;84;25795;-57
2022/02/16 05:11:37;;;;;;;58.17;21.93;;;;;;;1.47;67.71;101322.73;1690941;84;25827;-58
2022/02/16 05:14:05;;;;;;;68.22;33.08;;;;;;;1.44;67.58;101312.69;1690590;84;25873;-58
2022/02/16 05:16:33;;;;;;;44.15;21.12;;;;;;;1.40;67.74;101314.61;1692976;84;27455;-58
2022/02/16 05:19:00;;;;;;;46.15;19.80;;;;;;;1.39;67.79;101320.86;1698366;84;25769;-57
2022/02/16 05:21:28;;;;;;;43.02;21.55;;;;;;;1.38;67.97;101323.95;1698500;83;25804;-58
2022/02/16 05:23:56;;;;;;;37.28;19.92;;;;;;;1.36;67.92;101327.13;1697996;84;25793;-58
2022/02/16 05:26:23;;;;;;;38.30;19.70;;;;;;;1.32;67.98;101327.31;1683955;85;25837;-58
2022/02/16 05:28:51;;;;;;;39.85;19.90;;;;;;;1.29;68.01;101329.64;1687703;83;28191;-58
2022/02/16 05:31:19;;;;;;;33.80;18.57;;;;;;;1.26;67.99;101332.41;1691601;84;25744;-58
2022/02/16 05:33:47;;;;;;;41.77;21.15;;;;;;;1.29;68.13;101329.64;1691694;84;25725;-58
2022/02/16 05:36:16;;;;;;;30.92;19.52;;;;;;;1.30;68.03;101337.14;1691999;84;25795;-57
2022/02/16 05:38:45;;;;;;;40.20;18.17;;;;;;;1.26;67.85;101339.03;1691843;84;25832;-58
2022/02/16 05:41:12;;;;;;;43.05;20.40;;;;;;;1.21;67.96;101342.34;1691970;84;27446;-58
2022/02/16 05:43:39;;;;;;;42.10;22.35;;;;;;;1.16;67.82;101343.00;1690756;84;25825;-58
2022/02/16 05:46:08;;;;;;;47.53;21.48;;;;;;;1.13;67.83;101350.59;1689091;84;25745;-58
2022/02/16 05:48:35;;;;;;;38.38;20.68;;;;;;;1.07;67.81;101363.65;1687807;85;25821;-57
2022/02/16 05:51:04;;;;;;;42.95;20.75;;;;;;;1.05;67.66;101355.33;1689084;84;25838;-57
2022/02/16 05:53:31;;;;;;;42.27;19.40;;;;;;;1.03;67.68;101355.87;1690885;84;27555;-57
2022/02/16 05:55:58;;;;;;;45.00;20.35;;;;;;;1.06;67.98;101347.78;1690912;84;25815;-57
2022/02/16 05:58:27;;;;;;;43.33;21.50;;;;;;;1.09;68.17;101343.23;1690627;84;25894;-58
2022/02/16 06:00:54;;;;;;;42.62;20.57;;;;;;;1.18;68.41;101343.78;1691125;84;25824;-58
2022/02/16 06:03:23;;;;;;;38.80;19.00;;;;;;;1.25;68.72;101355.41;1688936;84;25732;-58
2022/02/16 06:05:52;;;;;;;40.80;20.62;;;;;;;1.30;69.00;101357.03;1690844;83;27488;-58
2022/02/16 06:08:20;;;;;;;43.98;20.20;;;;;;;1.33;68.92;101363.06;1690694;84;25812;-58
2022/02/16 06:10:48;;;;;;;42.20;21.45;;;;;;;1.40;68.94;101362.33;1690847;84;25606;-57
2022/02/16 06:13:16;;;;;;;36.13;21.02;;;;;;;1.54;69.08;101350.71;1690835;84;26426;-57
2022/02/16 06:15:43;;;;;;;34.78;20.08;;;;;;;1.69;69.31;101359.83;1690993;84;25797;-57
2022/02/16 06:18:10;;;;;;;39.58;21.17;;;;;;;1.94;69.55;101356.56;1691273;84;28234;-57
2022/02/16 06:20:37;;;;;;;42.45;20.48;;;;;;;2.14;69.47;101357.05;1691037;84;25759;-58
2022/02/16 06:23:04;;;;;;;49.15;24.27;;;;;;;2.22;68.95;101357.57;1691003;84;25731;-57
2022/02/16 06:25:32;;;;;;;46.13;24.05;;;;;;;2.28;68.88;101355.96;1711107;83;25769;-58
2022/02/16 06:28:03;;;;;;;45.58;23.25;;;;;;;2.37;68.96;101360.46;1716165;83;25873;-58
2022/02/16 06:30:30;;;;;;;49.27;24.80;;;;;;;2.48;68.80;101360.38;1686039;84;27545;-57
2022/02/16 06:32:59;;;;;;;50.38;24.23;;;;;;;2.56;68.59;101363.14;1684141;85;25663;-58
2022/02/16 06:35:27;;;;;;;49.58;26.97;;;;;;;2.54;68.66;101358.38;1684866;85;25735;-58
2022/02/16 06:37:53;;;;;;;48.13;24.67;;;;;;;2.53;68.29;101365.47;1684802;85;25696;-57
2022/02/16 06:40:22;;;;;;;51.83;26.07;;;;;;;2.55;68.26;101364.09;1684698;84;25789;-58
2022/02/16 06:42:50;;;;;;;48.78;24.47;;;;;;;2.52;68.44;101355.78;1689516;84;27488;-58
2022/02/16 06:45:18;;;;;;;52.65;24.18;;;;;;;2.54;68.38;101357.06;1687875;84;26204;-57
2022/02/16 06:47:48;;;;;;;42.73;23.95;;;;;;;2.59;68.43;101359.91;1694860;83;25693;-57
2022/02/16 06:50:16;;;;;;;45.95;24.52;;;;;;;2.61;68.36;101363.33;1667919;84;25827;-58
2022/02/16 06:52:44;;;;;;;51.23;24.67;;;;;;;2.63;68.35;101364.12;1697360;84;25994;-57
2022/02/16 06:55:12;;;;;;;49.23;25.82;;;;;;;2.65;68.30;101363.59;1698216;84;28185;-57
2022/02/16 06:57:40;;;;;;;46.65;23.25;;;;;;;2.70;68.33;101366.49;1693843;84;27264;-57
2022/02/16 07:00:10;;;;;;;45.73;24.60;;;;;;;2.76;68.23;101373.72;1685497;84;25767;-59
2022/02/16 07:02:45;;;;;;;48.42;26.50;;;;;;;2.84;68.31;101381.80;1698155;84;26493;-57
2022/02/16 07:05:14;;;;;;;64.10;33.42;;;;;;;2.89;68.14;101372.68;1698233;84;25737;-58
2022/02/16 07:07:42;;;;;;;53.90;27.17;;;;;;;2.95;68.05;101367.55;1670465;84;28178;-57
2022/02/16 07:10:10;;;;;;;51.18;26.90;;;;;;;2.99;67.84;101373.13;1696370;83;25818;-57
2022/02/16 07:12:38;;;;;;;53.40;30.15;;;;;;;3.02;67.95;101374.77;1700049;83;25472;-57
2022/02/16 07:15:13;;;;;;;52.85;27.15;;;;;;;3.05;67.96;101368.00;1695752;84;25792;-58
2022/02/16 07:17:43;;;;;;;55.75;29.12;;;;;;;3.03;68.00;101369.37;1697562;84;25761;-58
2022/02/16 07:20:13;;;;;;;44.15;24.15;;;;;;;3.06;68.00;101369.23;1698163;84;27539;-58
2022/02/16 07:22:47;;;;;;;47.88;25.68;;;;;;;3.11;67.82;101367.21;1697958;84;25773;-57
2022/02/16 07:25:16;;;;;;;;;;;;;;;3.16;67.73;101374.97;1697940;84;25713;-57
2022/02/16 07:27:43;;;;;;;48.33;25.82;;;;;;;3.15;67.64;101368.41;1696475;84;25909;-57
2022/02/16 07:30:13;;;;;;;52.08;27.15;;;;;;;3.13;67.90;101357.86;1698100;84;25709;-58
2022/02/16 07:32:42;;;;;;;43.60;24.67;;;;;;;3.13;67.80;101363.17;1698094;84;27539;-57
2022/02/16 07:35:12;;;;;;;52.88;24.70;;;;;;;3.15;67.83;101360.43;1696658;84;25836;-58
2022/02/16 07:37:40;;;;;;;42.80;23.65;;;;;;;3.14;68.23;101358.22;1692263;84;25754;-57
2022/02/16 07:40:10;;;;;;;46.65;24.02;;;;;;;3.11;68.12;101356.58;1692296;84;25824;-57
2022/02/16 07:42:37;;;;;;;45.43;23.77;;;;;;;3.17;68.24;101357.23;1692310;84;25718;-57
2022/02/16 07:45:22;;;;;;;42.73;23.70;;;;;;;3.24;68.33;101354.67;1689737;84;27483;-58
2022/02/16 07:47:51;;;;;;;54.15;25.00;;;;;;;3.40;68.49;101342.34;1692483;84;25741;-57
2022/02/16 07:50:18;;;;;;;49.10;25.20;;;;;;;3.55;68.48;101342.50;1697831;84;25728;-57
2022/02/16 07:52:50;;;;;;;49.10;25.25;;;;;;;3.75;68.61;101338.86;1689764;84;26346;-57
2022/02/16 07:55:19;;;;;;;51.83;24.72;;;;;;;3.91;68.55;101338.91;1688592;84;25841;-57
2022/02/16 07:57:48;;;;;;;57.30;26.00;;;;;;;4.03;67.98;101325.46;1695771;84;28290;-57
2022/02/16 08:00:16;;;;;;;47.93;26.23;;;;;;;4.16;67.96;101327.01;1695452;84;25517;-57
2022/02/16 08:02:44;;;;;;;57.35;27.10;;;;;;;4.30;67.59;101328.45;1698137;84;25825;-58
2022/02/16 08:05:12;;;;;;;60.40;26.77;;;;;;;4.42;67.12;101322.09;1697435;84;25877;-58
2022/02/16 08:07:39;;;;;;;55.90;27.13;;;;;;;4.57;66.73;101327.91;1698025;84;25830;-57
2022/02/16 08:10:08;;;;;;;54.10;27.22;;;;;;;4.67;66.32;101317.14;1698362;84;27454;-57
2022/02/16 08:12:47;;;;;;;55.48;26.42;;;;;;;4.81;66.26;101311.50;1694093;84;25737;-58
2022/02/16 08:15:15;;;;;;;57.48;29.50;;;;;;;4.93;65.44;101300.16;1692459;84;25760;-58
2022/02/16 08:17:42;;;;;;;58.20;29.12;;;;;;;5.04;65.32;101298.20;1672007;84;25759;-58
2022/02/16 08:20:11;;;;;;;48.02;26.70;;;;;;;5.20;65.48;101296.02;1698128;84;25702;-57
2022/02/16 08:22:41;;;;;;;50.03;28.32;;;;;;;5.40;64.85;101299.70;1694444;84;27517;-58
2022/02/16 08:25:10;;;;;;;51.98;26.42;;;;;;;5.57;64.61;101304.05;1694131;84;25887;-57
2022/02/16 08:27:42;;;;;;;59.27;27.67;;;;;;;5.72;63.79;101305.42;1681623;85;25984;-57
2022/02/16 08:30:13;;;;;;;47.45;27.27;;;;;;;5.86;63.53;101308.59;1685986;83;25851;-58
2022/02/16 08:32:41;;;;;;;66.50;27.20;;;;;;;6.01;62.33;101305.52;1684589;84;25771;-57
2022/02/16 08:35:11;;;;;;;47.27;26.25;;;;;;;6.16;62.78;101315.74;1691864;83;27531;-57
2022/02/16 08:37:40;;;;;;;46.58;26.07;;;;;;;6.30;61.86;101309.55;1688957;84;25773;-58
2022/02/16 08:40:10;;;;;;;50.98;25.92;;;;;;;6.51;62.34;101307.34;1692763;84;25682;-57
2022/02/16 08:42:37;;;;;;;49.05;26.42;;;;;;;6.69;61.60;101302.63;1691500;83;25839;-58
2022/02/16 08:45:06;;;;;;;50.85;26.33;;;;;;;6.88;60.62;101308.52;1691526;84;26311;-57
2022/02/16 08:47:32;;;;;;;52.50;25.80;;;;;;;7.03;60.98;101299.98;1687993;84;27475;-58
2022/02/16 08:49:59;;;;;;;52.88;25.80;;;;;;;7.27;60.78;101302.48;1691396;84;25871;-57
2022/02/16 08:52:26;;;;;;;44.95;24.52;;;;;;;7.44;59.75;101305.39;1691674;83;25809;-57
2022/02/16 08:54:53;;;;;;;44.27;25.70;;;;;;;7.61;59.78;101303.77;1689742;84;25781;-57
2022/02/16 08:57:21;;;;;;;44.20;24.87;;;;;;;7.82;58.60;101312.16;1691288;83;25954;-57
2022/02/16 08:59:49;;;;;;;58.35;27.77;;;;;;;7.97;58.46;101306.23;1692089;84;27535;-58
2022/02/16 09:02:17;;;;;;;54.93;26.12;;;;;;;8.20;58.54;101302.91;1692139;84;25793;-58
2022/02/16 09:04:44;;;;;;;52.75;27.52;;;;;;;8.46;58.35;101304.61;1690992;84;26699;-57
2022/02/16 09:07:29;;;;;;;45.25;24.95;;;;;;;8.75;57.51;101298.14;1684616;85;25780;-57
2022/02/16 09:10:00;;;;;;;48.70;25.72;;;;;;;8.99;56.37;101297.30;1689202;84;25761;-58
2022/02/16 09:12:28;;;;;;;49.00;26.33;;;;;;;9.30;56.03;101303.09;1692104;84;28229;-58
2022/02/16 09:14:57;;;;;;;51.58;26.68;;;;;;;9.62;56.21;101300.66;1692614;84;25878;-57
2022/02/16 09:17:25;;;;;;;46.02;25.23;;;;;;;9.96;52.34;101287.77;1691961;84;25761;-58
2022/02/16 09:19:53;;;;;;;45.70;26.77;;;;;;;10.23;52.36;101289.27;1697033;84;25744;-57
2022/02/16 09:22:26;;;;;;;53.02;29.40;;;;;;;10.74;52.76;101279.88;1698510;84;25801;-58
2022/02/16 09:24:52;;;;;;;53.10;26.90;;;;;;;11.59;51.31;101273.73;1695752;84;27589;-58
2022/02/16 09:27:19;;;;;;;40.85;22.93;;;;;;;12.44;49.63;101270.94;1691216;84;25903;-59
2022/02/16 09:29:50;;;;;;;46.02;24.27;;;;;;;13.23;49.05;101267.05;1684613;83;25777;-59
2022/02/16 09:32:18;;;;;;;43.00;26.50;;;;;;;13.95;48.41;101268.94;1691005;84;25816;-58
2022/02/16 09:34:46;;;;;;;53.98;28.70;;;;;;;14.65;47.98;101253.65;1690954;83;25756;-58
2022/02/16 09:37:13;;;;;;;50.05;27.45;;;;;;;15.09;45.79;101254.81;1690829;83;27498;-57
2022/02/16 09:39:40;;;;;;;53.17;27.67;;;;;;;15.14;45.17;101253.35;1690903;84;25814;-57
2022/02/16 09:42:07;;;;;;;65.08;25.97;;;;;;;15.13;45.63;101239.94;1691730;84;25674;-57
2022/02/16 09:44:43;;;;;;;48.17;25.80;;;;;;;15.38;42.35;101234.73;1691086;84;26504;-57
2022/02/16 09:47:11;;;;;;;64.20;26.07;;;;;;;15.37;43.42;101230.34;1695732;83;25706;-58
2022/02/16 09:49:39;;;;;;;56.55;26.97;;;;;;;15.32;43.00;101220.81;1691134;84;27441;-58
2022/02/16 09:52:09;;;;;;;53.00;24.95;;;;;;;15.29;42.84;101212.14;1689049;84;25819;-57
2022/02/16 09:54:38;;;;;;;41.85;25.12;;;;;;;15.30;42.78;101196.23;1689611;84;25844;-58
2022/02/16 09:57:05;;;;;;;45.65;25.97;;;;;;;15.08;42.34;101188.92;1688136;84;26459;-58
2022/02/16 09:59:33;;;;;;;47.27;26.23;;;;;;;14.77;42.39;101180.33;1688646;84;25693;-58
2022/02/16 10:02:09;;;;;;;49.35;26.27;;;;;;;14.60;42.10;101182.84;1678566;84;27551;-57
2022/02/16 10:04:40;;;;;;;47.80;23.38;;;;;;;14.69;42.65;101188.72;1683615;84;25764;-58
2022/02/16 10:07:39;;;;;;;40.05;23.32;;;;;;;14.85;42.27;101183.11;1692745;84;25730;-58
2022/02/16 10:10:23;;;;;;;50.92;25.80;;;;;;;15.13;41.69;101177.13;1682670;83;25733;-59
2022/02/16 10:12:54;;;;;;;49.42;23.47;;;;;;;15.24;41.76;101169.25;1690974;83;26197;-59
2022/02/16 10:15:39;;;;;;;61.83;24.32;;;;;;;15.21;41.41;101158.70;1691401;84;28063;-58
2022/02/16 10:18:10;;;;;;;49.08;25.80;;;;;;;15.07;41.49;101156.57;1690834;84;25683;-58
2022/02/16 10:20:37;;;;;;;51.63;26.00;;;;;;;14.99;40.64;101145.15;1691326;84;25594;-57
2022/02/16 10:23:04;;;;;;;42.43;24.85;;;;;;;14.77;41.77;101142.41;1690981;83;25814;-58
2022/02/16 10:25:34;;;;;;;52.43;26.05;;;;;;;14.53;41.53;101137.08;1690958;84;26322;-58
2022/02/16 10:28:18;;;;;;;54.65;27.02;;;;;;;14.43;41.91;101133.09;1690684;84;28226;-58
2022/02/16 10:31:04;;;;;;;46.15;26.17;;;;;;;14.47;40.19;101131.77;1684308;84;25812;-58
2022/02/16 10:33:43;;;;;;;38.58;24.47;;;;;;;14.53;41.34;101124.89;1665190;85;25832;-58
2022/02/16 10:36:18;;;;;;;42.03;25.00;;;;;;;14.64;41.57;101119.27;1656032;85;25790;-58
2022/02/16 10:39:06;;;;;;;50.23;26.97;;;;;;;14.85;40.94;101115.40;1656767;85;25907;-57
2022/02/16 10:41:47;;;;;;;52.55;27.22;;;;;;;15.34;40.33;101117.15;1658742;86;28282;-58
2022/02/16 10:44:31;;;;;;;44.20;25.10;;;;;;;15.46;39.67;101120.95;1657696;86;25879;-57
2022/02/16 10:47:11;;;;;;;60.30;26.82;;;;;;;16.10;39.86;101115.17;1655987;86;25770;-58
2022/02/16 10:49:43;;;;;;;62.17;25.70;;;;;;;16.80;39.05;101107.19;1661971;85;25743;-57
2022/02/16 10:52:15;;;;;;;61.05;25.62;;;;;;;17.56;38.88;101114.26;1668794;85;25938;-57
2022/02/16 10:54:57;;;;;;;57.78;26.27;;;;;;;18.46;38.64;101117.14;1668115;85;27437;-57
2022/02/16 10:57:23;;;;;;;38.08;24.43;;;;;;;18.93;36.01;101104.39;1665861;86;25748;-58
2022/02/16 10:59:52;;;;;;;46.30;24.72;;;;;;;19.07;34.97;101101.37;1657577;86;25749;-57
2022/02/16 11:02:23;;;;;;;44.40;24.02;;;;;;;18.66;34.63;101090.27;1662571;85;25772;-57
2022/02/16 11:04:53;;;;;;;40.03;23.20;;;;;;;18.72;35.05;101100.42;1668759;86;25981;-58
2022/02/16 11:07:23;;;;;;;39.85;22.77;;;;;;;18.92;34.56;101099.94;1667446;86;27472;-57
2022/02/16 11:09:58;;;;;;;48.85;24.15;;;;;;;18.97;34.68;101085.26;1668610;86;25476;-58
2022/02/16 11:12:26;;;;;;;41.40;23.92;;;;;;;18.81;33.85;101084.87;1668551;86;26366;-57
2022/02/16 11:14:54;;;;;;;61.55;22.77;;;;;;;18.82;35.17;101084.34;1668829;86;26427;-57
2022/02/16 11:17:25;;;;;;;45.15;22.30;;;;;;;18.86;35.16;101084.33;1667655;85;25436;-58
2022/02/16 11:20:17;;;;;;;48.78;22.87;;;;;;;18.97;34.58;101078.97;1661479;85;27501;-57
2022/02/16 11:22:55;;;;;;;44.20;21.93;;;;;;;18.84;34.20;101078.20;1672973;85;25777;-57
2022/02/16 11:25:30;;;;;;;32.58;21.00;;;;;;;18.52;33.94;101082.86;1657500;86;25756;-58
2022/02/16 11:28:03;;;;;;;35.23;21.40;;;;;;;18.27;33.25;101077.58;1656519;85;25816;-57